createdAt,value
2023-09-19T00:00:14.226Z,9.03
2023-09-19T00:03:16.244Z,10.55
2023-09-19T00:06:21.919Z,8.75
2023-09-19T00:09:27.401Z,9.63
2023-09-19T00:12:29.286Z,10.20
2023-09-19T00:15:31.192Z,8.70
2023-09-19T00:18:33.791Z,8.55
2023-09-19T00:21:37.008Z,8.90
2023-09-19T00:24:43.327Z,8.98
2023-09-19T00:27:46.377Z,11.53
2023-09-19T00:30:56.600Z,8.07
2023-09-19T00:34:03.897Z,9.68
2023-09-19T00:37:08.996Z,9.02
2023-09-19T00:40:14.249Z,8.63
2023-09-19T00:43:16.427Z,9.37
2023-09-19T00:46:20.615Z,9.80
2023-09-19T00:49:23.937Z,10.07
2023-09-19T00:52:30.230Z,9.15
2023-09-19T00:55:38.458Z,10.13
2023-09-19T00:58:41.490Z,12.30
2023-09-19T01:01:43.492Z,10.63
2023-09-19T01:04:46.025Z,9.93
2023-09-19T01:07:50.304Z,11.45
2023-09-19T01:10:59.738Z,12.23
2023-09-19T01:14:11.127Z,8.23
2023-09-19T01:17:27.002Z,10.83
2023-09-19T01:20:36.230Z,11.05
2023-09-19T01:23:56.865Z,9.30
2023-09-19T01:27:15.690Z,9.88
2023-09-19T01:30:19.803Z,11.27
2023-09-19T01:33:22.066Z,10.27
2023-09-19T01:36:28.890Z,10.32
2023-09-19T01:39:30.803Z,9.73
2023-09-19T01:43:01.360Z,10.85
2023-09-19T01:46:31.582Z,9.37
2023-09-19T01:49:47.710Z,9.63
2023-09-19T01:53:08.432Z,10.25
2023-09-19T01:56:16.742Z,13.02
2023-09-19T01:59:22.748Z,10.65
2023-09-19T02:02:24.874Z,9.77
2023-09-19T02:05:27.144Z,11.17
2023-09-19T02:08:28.978Z,11.65
2023-09-19T02:11:35.268Z,11.15
2023-09-19T02:14:37.394Z,10.40
2023-09-19T02:17:39.744Z,12.63
2023-09-19T02:20:41.907Z,12.53
2023-09-19T02:23:48.370Z,11.73
2023-09-19T02:26:50.302Z,13.60
2023-09-19T02:29:53.216Z,12.25
2023-09-19T02:32:55.171Z,16.03
2023-09-19T02:36:00.626Z,11.53
2023-09-19T02:39:05.960Z,11.23
2023-09-19T02:42:08.070Z,10.90
2023-09-19T02:45:11.002Z,11.25
2023-09-19T02:48:13.287Z,10.60
2023-09-19T02:51:15.243Z,11.50
2023-09-19T02:54:20.025Z,14.93
2023-09-19T02:57:22.025Z,11.30
2023-09-19T03:00:24.123Z,14.25
2023-09-19T03:03:26.155Z,12.33
2023-09-19T03:06:28.197Z,11.37
2023-09-19T03:09:30.064Z,13.05
2023-09-19T03:12:35.992Z,12.68
2023-09-19T03:15:40.587Z,11.13
2023-09-19T03:18:42.559Z,13.47
2023-09-19T03:21:44.546Z,10.57
2023-09-19T03:24:50.834Z,17.80
2023-09-19T03:27:52.956Z,11.55
2023-09-19T03:31:05.854Z,12.73
2023-09-19T03:34:07.883Z,12.00
2023-09-19T03:37:10.383Z,12.40
2023-09-19T03:40:12.990Z,12.90
2023-09-19T03:43:15.497Z,13.98
2023-09-19T03:46:17.495Z,12.13
2023-09-19T03:49:20.467Z,14.20
2023-09-19T03:52:22.416Z,14.03
2023-09-19T03:55:24.323Z,14.50
2023-09-19T03:58:26.441Z,13.20
2023-09-19T04:01:29.856Z,15.90
2023-09-19T04:04:31.691Z,13.43
2023-09-19T04:07:33.630Z,17.67
2023-09-19T04:10:39.378Z,16.33
2023-09-19T04:13:41.443Z,12.32
2023-09-19T04:16:43.812Z,12.30
2023-09-19T04:19:46.921Z,12.67
2023-09-19T04:22:49.040Z,10.73
2023-09-19T04:25:55.301Z,11.90
2023-09-19T04:29:03.998Z,13.80
2023-09-19T04:32:07.255Z,13.27
2023-09-19T04:35:10.767Z,12.90
2023-09-19T04:38:13.268Z,12.00
2023-09-19T04:41:16.928Z,12.85
2023-09-19T04:44:22.950Z,11.60
2023-09-19T04:47:24.910Z,14.38
2023-09-19T04:50:27.989Z,12.30
2023-09-19T04:53:30.121Z,12.00
2023-09-19T04:56:33.489Z,13.35
2023-09-19T04:59:35.370Z,12.27
2023-09-19T05:02:37.319Z,11.38
2023-09-19T05:05:40.214Z,10.63
2023-09-19T05:08:42.057Z,14.13
2023-09-19T05:11:45.132Z,14.15
2023-09-19T05:14:47.291Z,12.15
2023-09-19T05:17:55.654Z,11.77
2023-09-19T05:20:58.683Z,12.73
2023-09-19T05:24:00.573Z,11.53
2023-09-19T05:27:02.513Z,12.80
2023-09-19T05:30:06.206Z,12.15
2023-09-19T05:33:08.901Z,11.80
2023-09-19T05:36:13.295Z,7.63
2023-09-19T05:39:15.429Z,4.97
2023-09-19T05:42:17.453Z,5.40
2023-09-19T05:45:29.208Z,5.45
2023-09-19T05:48:32.078Z,7.57
2023-09-19T05:51:34.162Z,4.87
2023-09-19T05:54:36.022Z,5.67
2023-09-19T05:57:40.424Z,4.00
2023-09-19T06:00:44.291Z,2.90
2023-09-19T06:03:46.236Z,3.00
2023-09-19T06:06:49.921Z,2.43
2023-09-19T06:09:51.776Z,3.37
2023-09-19T06:12:54.392Z,4.28
2023-09-19T06:15:57.992Z,3.00
2023-09-19T06:19:02.731Z,2.97
2023-09-19T06:22:04.983Z,2.83
2023-09-19T06:25:08.648Z,3.13
2023-09-19T06:28:13.643Z,3.60
2023-09-19T06:31:15.631Z,2.55
2023-09-19T06:34:19.135Z,3.92
2023-09-19T06:37:21.998Z,3.90
2023-09-19T06:40:24.310Z,2.60
2023-09-19T06:43:26.300Z,3.67
2023-09-19T06:46:34.166Z,2.47
2023-09-19T06:49:36.687Z,5.97
2023-09-19T06:52:39.089Z,4.93
2023-09-19T06:55:41.421Z,2.93
2023-09-19T06:58:45.105Z,17.90
2023-09-19T07:01:48.792Z,8.80
2023-09-19T07:04:50.839Z,6.55
2023-09-19T07:07:52.990Z,3.70
2023-09-19T07:10:57.682Z,3.23
2023-09-19T07:13:59.819Z,2.65
2023-09-19T07:17:02.064Z,2.97
2023-09-19T07:20:09.259Z,3.80
2023-09-19T07:23:11.377Z,3.17
2023-09-19T07:26:13.570Z,3.23
2023-09-19T07:29:17.070Z,3.63
2023-09-19T07:32:19.672Z,2.05
2023-09-19T07:35:21.922Z,3.25
2023-09-19T07:38:24.073Z,2.90
2023-09-19T07:41:26.853Z,2.60
2023-09-19T07:44:28.752Z,2.60
2023-09-19T07:47:31.858Z,3.13
2023-09-19T07:50:40.308Z,2.88
2023-09-19T07:53:43.732Z,3.27
2023-09-19T07:56:46.934Z,2.70
2023-09-19T07:59:48.883Z,2.65
2023-09-19T08:02:56.876Z,3.42
2023-09-19T08:06:05.827Z,4.35
2023-09-19T08:09:12.620Z,2.40
2023-09-19T08:12:16.193Z,6.73
2023-09-19T08:15:20.590Z,3.78
2023-09-19T08:18:25.459Z,2.63
2023-09-19T08:21:30.173Z,3.50
2023-09-19T08:24:32.388Z,4.80
2023-09-19T08:27:37.467Z,3.17
2023-09-19T08:30:42.358Z,2.63
2023-09-19T08:33:46.649Z,5.15
2023-09-19T08:36:49.307Z,3.22
2023-09-19T08:39:51.179Z,3.30
2023-09-19T08:42:57.269Z,3.23
2023-09-19T08:46:14.506Z,4.25
2023-09-19T08:49:31.914Z,3.65
2023-09-19T08:52:35.381Z,2.78
2023-09-19T08:55:38.624Z,3.80
2023-09-19T08:58:59.905Z,2.97
2023-09-19T09:02:02.019Z,2.88
2023-09-19T09:05:06.659Z,4.10
2023-09-19T09:08:08.606Z,3.50
2023-09-19T09:11:12.006Z,10.93
2023-09-19T09:14:15.852Z,4.13
2023-09-19T09:17:21.789Z,3.85
2023-09-19T09:20:23.793Z,3.58
2023-09-19T09:23:27.012Z,4.97
2023-09-19T09:26:44.461Z,3.97
2023-09-19T09:29:56.263Z,5.37
2023-09-19T09:33:12.451Z,4.75
2023-09-19T09:36:16.437Z,4.40
2023-09-19T09:39:33.153Z,5.55
2023-09-19T09:42:48.457Z,4.20
2023-09-19T09:45:55.059Z,4.17
2023-09-19T09:49:17.254Z,3.63
2023-09-19T09:52:19.332Z,4.32
2023-09-19T09:55:21.809Z,3.10
2023-09-19T09:58:30.739Z,3.57
2023-09-19T10:01:48.859Z,3.77
2023-09-19T10:05:30.363Z,3.33
2023-09-19T10:08:32.936Z,3.17
2023-09-19T10:11:34.821Z,3.85
2023-09-19T10:14:39.409Z,3.20
2023-09-19T10:17:41.373Z,3.63
2023-09-19T10:20:46.358Z,4.03
2023-09-19T10:23:48.364Z,4.25
2023-09-19T10:26:52.084Z,3.47
2023-09-19T10:29:56.622Z,3.93
2023-09-19T10:33:06.957Z,10.20
2023-09-19T10:36:09.758Z,4.65
2023-09-19T10:39:13.613Z,4.90
2023-09-19T10:42:21.794Z,4.25
2023-09-19T10:45:23.807Z,2.70
2023-09-19T10:48:27.533Z,2.67
2023-09-19T10:51:35.041Z,4.75
2023-09-19T10:54:40.669Z,4.63
2023-09-19T10:57:43.449Z,2.58
2023-09-19T11:00:56.303Z,4.80
2023-09-19T11:04:40.324Z,2.73
2023-09-19T11:08:05.511Z,2.88
2023-09-19T11:11:08.894Z,2.42
2023-09-19T11:14:25.923Z,4.80
2023-09-19T11:17:38.889Z,4.17
2023-09-19T11:20:43.225Z,3.43
2023-09-19T11:23:45.139Z,3.60
2023-09-19T11:26:49.900Z,4.25
2023-09-19T11:29:51.777Z,3.75
2023-09-19T11:33:24.924Z,3.20
2023-09-19T11:36:37.922Z,9.47
2023-09-19T11:39:40.112Z,3.35
2023-09-19T11:42:51.595Z,2.85
2023-09-19T11:45:59.157Z,4.10
2023-09-19T11:49:14.800Z,6.97
2023-09-19T11:52:25.584Z,3.53
2023-09-19T11:55:28.985Z,4.97
2023-09-19T11:58:31.520Z,4.85
2023-09-19T12:01:35.134Z,3.65
2023-09-19T12:04:40.881Z,7.27
2023-09-19T12:07:49.193Z,5.07
2023-09-19T12:10:52.566Z,3.15
2023-09-19T12:13:54.846Z,3.33
2023-09-19T12:16:57.625Z,4.38
2023-09-19T12:19:59.637Z,3.73
2023-09-19T12:23:01.653Z,4.00
2023-09-19T12:26:13.761Z,4.15
2023-09-19T12:29:25.532Z,3.60
2023-09-19T12:32:44.871Z,4.00
2023-09-19T12:35:46.948Z,3.50
2023-09-19T12:38:50.110Z,3.57
2023-09-19T12:41:52.886Z,3.35
2023-09-19T12:44:58.533Z,3.40
2023-09-19T12:48:35.761Z,4.05
2023-09-19T12:51:38.305Z,3.03
2023-09-19T12:54:44.690Z,3.17
2023-09-19T12:58:04.835Z,4.28
2023-09-19T13:01:15.997Z,3.67
2023-09-19T13:04:27.098Z,4.35
2023-09-19T13:07:45.202Z,3.33
2023-09-19T13:11:16.144Z,2.80
2023-09-19T13:14:26.190Z,4.50
2023-09-19T13:17:31.816Z,3.67
2023-09-19T13:20:40.815Z,2.85
2023-09-19T13:23:44.785Z,4.50
2023-09-19T13:26:47.145Z,5.60
2023-09-19T13:29:49.314Z,3.22
2023-09-19T13:32:51.688Z,3.97
2023-09-19T13:35:54.405Z,3.90
2023-09-19T13:38:56.971Z,3.33
2023-09-19T13:41:59.084Z,4.20
2023-09-19T13:45:01.147Z,3.97
2023-09-19T13:48:03.134Z,2.80
2023-09-19T13:51:05.780Z,3.38
2023-09-19T13:54:07.946Z,5.87
2023-09-19T13:57:11.597Z,3.70
2023-09-19T14:00:17.508Z,4.15
2023-09-19T14:03:21.980Z,2.67
2023-09-19T14:06:24.038Z,3.45
2023-09-19T14:09:26.185Z,4.07
2023-09-19T14:12:28.512Z,2.87
2023-09-19T14:15:33.633Z,4.50
2023-09-19T14:18:35.915Z,3.30
2023-09-19T14:21:37.864Z,2.88
2023-09-19T14:24:40.042Z,2.50
2023-09-19T14:27:42.934Z,5.70
2023-09-19T14:30:45.000Z,4.70
2023-09-19T14:33:47.013Z,3.70
2023-09-19T14:36:54.116Z,3.90
2023-09-19T14:39:55.969Z,3.80
2023-09-19T14:42:57.950Z,3.83
2023-09-19T14:46:05.820Z,4.47
2023-09-19T14:49:08.136Z,3.92
2023-09-19T14:52:13.628Z,4.47
2023-09-19T14:55:16.685Z,3.67
2023-09-19T14:58:19.393Z,3.53
2023-09-19T15:01:21.324Z,4.00
2023-09-19T15:04:23.432Z,3.70
2023-09-19T15:07:28.521Z,3.67
2023-09-19T15:10:31.160Z,4.43
2023-09-19T15:13:33.337Z,4.27
2023-09-19T15:16:36.131Z,3.70
2023-09-19T15:19:39.052Z,3.10
2023-09-19T15:22:41.530Z,2.90
2023-09-19T15:25:49.534Z,3.17
2023-09-19T15:28:51.730Z,3.30
2023-09-19T15:31:53.782Z,3.55
2023-09-19T15:34:55.971Z,4.53
2023-09-19T15:37:59.878Z,4.75
2023-09-19T15:41:02.377Z,3.87
2023-09-19T15:44:04.827Z,3.73
2023-09-19T15:47:07.035Z,4.38
2023-09-19T15:50:11.812Z,3.08
2023-09-19T15:53:13.865Z,3.85
2023-09-19T15:56:17.898Z,3.30
2023-09-19T15:59:20.047Z,5.33
2023-09-19T16:02:22.164Z,4.20
2023-09-19T16:05:24.268Z,4.40
2023-09-19T16:08:30.334Z,3.85
2023-09-19T16:11:36.691Z,3.40
2023-09-19T16:14:38.901Z,3.40
2023-09-19T16:17:40.993Z,2.83
2023-09-19T16:20:42.865Z,3.83
2023-09-19T16:23:48.667Z,4.35
2023-09-19T16:26:50.846Z,3.40
2023-09-19T16:29:52.838Z,6.90
2023-09-19T16:32:54.827Z,3.78
2023-09-19T16:35:57.313Z,3.25
2023-09-19T16:39:01.268Z,5.03
2023-09-19T16:42:19.376Z,4.23
2023-09-19T16:45:23.776Z,4.43
2023-09-19T16:48:26.965Z,5.15
2023-09-19T16:51:33.051Z,5.43
2023-09-19T16:54:36.065Z,5.13
2023-09-19T16:57:38.039Z,4.97
2023-09-19T17:00:40.252Z,3.83
2023-09-19T17:03:42.547Z,4.32
2023-09-19T17:06:47.783Z,4.00
2023-09-19T17:09:52.639Z,5.70
2023-09-19T17:12:59.917Z,4.27
2023-09-19T17:16:05.888Z,5.00
2023-09-19T17:19:09.981Z,6.15
2023-09-19T17:22:15.587Z,7.43
2023-09-19T17:25:18.064Z,4.70
2023-09-19T17:28:23.006Z,8.03
2023-09-19T17:31:30.269Z,5.00
2023-09-19T17:34:32.297Z,6.85
2023-09-19T17:37:44.121Z,7.15
2023-09-19T17:40:47.729Z,6.35
2023-09-19T17:43:53.735Z,4.73
2023-09-19T17:46:55.788Z,6.07
2023-09-19T17:49:57.926Z,4.47
2023-09-19T17:53:00.817Z,5.55
2023-09-19T17:56:08.121Z,4.78
2023-09-19T17:59:13.722Z,5.03
2023-09-19T18:02:15.699Z,3.93
2023-09-19T18:05:21.019Z,4.32
2023-09-19T18:08:26.944Z,7.13
2023-09-19T18:11:29.830Z,7.95
2023-09-19T18:14:33.638Z,5.70
2023-09-19T18:17:37.505Z,5.63
2023-09-19T18:20:41.258Z,6.13
2023-09-19T18:23:46.981Z,4.43
2023-09-19T18:26:53.319Z,5.97
2023-09-19T18:29:55.354Z,5.33
2023-09-19T18:32:58.012Z,5.73
2023-09-19T18:36:08.526Z,6.65
2023-09-19T18:39:11.274Z,6.85
2023-09-19T18:42:17.260Z,4.82
2023-09-19T18:45:34.722Z,4.70
2023-09-19T18:48:47.198Z,6.33
2023-09-19T18:51:49.083Z,5.65
2023-09-19T18:54:53.742Z,5.45
2023-09-19T18:57:55.596Z,5.75
2023-09-19T19:01:11.158Z,4.90
2023-09-19T19:04:14.069Z,5.80
2023-09-19T19:07:18.447Z,7.13
2023-09-19T19:10:24.096Z,4.80
2023-09-19T19:13:25.917Z,5.93
2023-09-19T19:16:32.354Z,6.10
2023-09-19T19:19:34.226Z,6.13
2023-09-19T19:22:37.838Z,6.15
2023-09-19T19:25:51.544Z,6.13
2023-09-19T19:28:57.137Z,4.28
2023-09-19T19:31:58.995Z,5.07
2023-09-19T19:35:01.134Z,5.67
2023-09-19T19:38:03.985Z,5.95
2023-09-19T19:41:06.385Z,8.45
2023-09-19T19:44:12.213Z,5.38
2023-09-19T19:47:19.562Z,6.07
2023-09-19T19:50:21.467Z,5.03
2023-09-19T19:53:26.193Z,4.88
2023-09-19T19:56:32.276Z,4.70
2023-09-19T19:59:34.173Z,4.93
2023-09-19T20:02:37.327Z,4.90
2023-09-19T20:05:42.955Z,5.67
2023-09-19T20:08:45.210Z,4.15
2023-09-19T20:11:49.995Z,4.60
2023-09-19T20:14:56.479Z,4.03
2023-09-19T20:18:01.054Z,3.77
2023-09-19T20:21:11.655Z,6.67
2023-09-19T20:24:14.966Z,6.43
2023-09-19T20:27:16.763Z,4.88
2023-09-19T20:30:22.171Z,5.55
2023-09-19T20:33:29.495Z,5.80
2023-09-19T20:36:33.266Z,5.17
2023-09-19T20:39:35.218Z,5.10
2023-09-19T20:42:43.289Z,4.82
2023-09-19T20:45:45.149Z,4.60
2023-09-19T20:48:53.689Z,5.83
2023-09-19T20:51:59.022Z,5.17
2023-09-19T20:55:00.914Z,5.28
2023-09-19T20:58:07.376Z,5.97
2023-09-19T21:01:12.953Z,5.30
2023-09-19T21:04:14.913Z,5.50
2023-09-19T21:07:17.017Z,4.07
2023-09-19T21:10:18.999Z,4.45
2023-09-19T21:13:20.958Z,5.68
2023-09-19T21:16:25.997Z,4.40
2023-09-19T21:19:35.042Z,5.20
2023-09-19T21:22:37.271Z,3.93
2023-09-19T21:25:39.341Z,5.90
2023-09-19T21:28:46.228Z,4.80
2023-09-19T21:31:48.820Z,5.00
2023-09-19T21:34:54.648Z,5.63
2023-09-19T21:37:56.617Z,3.83
2023-09-19T21:41:17.308Z,5.47
2023-09-19T21:44:22.837Z,5.63
2023-09-19T21:47:25.583Z,6.53
2023-09-19T21:50:32.051Z,5.00
2023-09-19T21:53:35.170Z,4.07
2023-09-19T21:56:38.732Z,4.50
2023-09-19T21:59:44.104Z,4.40
2023-09-19T22:02:46.729Z,4.53
2023-09-19T22:05:50.014Z,4.67
2023-09-19T22:08:52.201Z,4.20
2023-09-19T22:11:58.009Z,4.60
2023-09-19T22:15:02.178Z,4.93
2023-09-19T22:18:06.777Z,4.53
2023-09-19T22:21:08.855Z,4.03
2023-09-19T22:24:12.630Z,5.33
2023-09-19T22:27:18.359Z,6.28
2023-09-19T22:30:23.938Z,6.57
2023-09-19T22:33:26.252Z,4.47
2023-09-19T22:36:40.427Z,4.33
2023-09-19T22:39:43.309Z,4.87
2023-09-19T22:42:49.378Z,4.90
2023-09-19T22:45:54.272Z,4.53
2023-09-19T22:49:00.623Z,5.20
2023-09-19T22:52:03.611Z,4.47
2023-09-19T22:55:09.656Z,5.37
2023-09-19T22:58:18.020Z,6.88
2023-09-19T23:01:28.562Z,4.88
2023-09-19T23:04:34.489Z,4.82
2023-09-19T23:07:39.981Z,4.50
2023-09-19T23:10:48.592Z,5.13
2023-09-19T23:13:57.320Z,6.03
2023-09-19T23:17:02.050Z,6.53
2023-09-19T23:20:10.787Z,5.63
2023-09-19T23:23:18.984Z,5.97
2023-09-19T23:26:21.388Z,5.00
2023-09-19T23:29:23.366Z,4.90
2023-09-19T23:32:30.538Z,4.95
2023-09-19T23:35:32.626Z,4.78
2023-09-19T23:38:35.306Z,5.10
2023-09-19T23:41:39.682Z,5.30
2023-09-19T23:44:48.426Z,5.97
2023-09-19T23:47:55.485Z,4.85
2023-09-19T23:51:04.074Z,5.18
2023-09-19T23:54:08.103Z,5.87
2023-09-19T23:57:16.350Z,4.43
